Time;durP1;ratioP1;P1;durP2;ratioP2;P2;SDS_P1;SDS_P2;PMS_P1;PMS_P2;Temp;Humidity;BMP_temperature;BMP_pressure;BME280_temperature;BME280_humidity;BME280_pressure;Samples;Min_cycle;Max_cycle;Signal;HPM_P1;HPM_P2
2022/01/10 00:00:18;;;;;;;38.95;21.02;;;;;;;-0.11;93.59;99732.88;5046133;28;20397;-72
2022/01/10 00:02:46;;;;;;;39.38;21.85;;;;;;;-0.10;93.84;99729.31;5052337;28;20100;-72
2022/01/10 00:05:12;;;;;;;39.67;21.30;;;;;;;-0.05;94.11;99748.38;5034684;28;20032;-73
2022/01/10 00:07:38;;;;;;;39.95;19.67;;;;;;;-0.10;93.81;99738.09;5045607;28;20029;-73
2022/01/10 00:10:04;;;;;;;38.47;20.42;;;;;;;-0.09;93.59;99736.31;5052145;28;20548;-74
2022/01/10 00:12:32;;;;;;;34.28;18.98;;;;;;;-0.10;93.49;99731.94;5052069;28;20051;-72
2022/01/10 00:14:58;;;;;;;40.70;20.98;;;;;;;-0.13;93.61;99726.84;5052231;28;20481;-71
2022/01/10 00:17:23;;;;;;;36.75;19.95;;;;;;;-0.06;93.47;99739.59;5051878;28;20059;-73
2022/01/10 00:19:49;;;;;;;39.97;21.75;;;;;;;-0.09;93.68;99742.41;5051495;28;20163;-73
2022/01/10 00:22:14;;;;;;;41.88;22.15;;;;;;;-0.15;93.76;99728.72;5051534;28;20098;-73
2022/01/10 00:24:40;;;;;;;40.50;22.08;;;;;;;-0.14;93.65;99735.69;5052125;28;20052;-73
2022/01/10 00:27:06;;;;;;;41.17;21.38;;;;;;;-0.19;93.54;99737.75;5051754;28;20055;-73
2022/01/10 00:29:32;;;;;;;35.85;20.80;;;;;;;-0.14;93.50;99752.38;5051546;28;20109;-73
2022/01/10 00:31:58;;;;;;;40.78;21.92;;;;;;;-0.20;93.23;99744.78;5051721;28;20028;-72
2022/01/10 00:34:27;;;;;;;40.25;21.95;;;;;;;-0.17;93.19;99756.94;5051584;28;20473;-73
2022/01/10 00:36:56;;;;;;;38.65;21.77;;;;;;;-0.20;93.09;99752.69;5051638;28;21886;-72
2022/01/10 00:39:21;;;;;;;37.17;20.10;;;;;;;-0.21;93.12;99753.63;5048931;28;20492;-73
2022/01/10 00:41:47;;;;;;;41.38;20.85;;;;;;;-0.24;93.41;99750.28;5051146;28;20032;-73
2022/01/10 00:44:13;;;;;;;40.65;21.70;;;;;;;-0.30;92.72;99745.34;5050822;28;20033;-73
2022/01/10 00:46:42;;;;;;;36.85;20.02;;;;;;;-0.30;93.10;99747.97;5045085;28;20040;-73
2022/01/10 00:49:08;;;;;;;38.38;20.67;;;;;;;-0.33;93.21;99750.78;5051119;28;20021;-73
2022/01/10 00:51:36;;;;;;;37.65;19.58;;;;;;;-0.32;93.07;99753.31;5066313;28;20052;-72
2022/01/10 00:54:01;;;;;;;35.80;18.27;;;;;;;-0.32;92.95;99752.50;5077027;28;20452;-72
2022/01/10 00:56:27;;;;;;;34.90;18.77;;;;;;;-0.35;92.41;99755.28;5080347;28;20016;-72
2022/01/10 00:58:52;;;;;;;37.85;19.67;;;;;;;-0.38;92.29;99758.09;5085522;28;20482;-73
2022/01/10 01:01:18;;;;;;;34.00;18.73;;;;;;;-0.44;92.25;99746.09;5084541;28;20031;-73
2022/01/10 01:03:45;;;;;;;34.40;19.48;;;;;;;-0.36;92.21;99772.00;5083760;28;20103;-73
2022/01/10 01:06:15;;;;;;;40.22;20.92;;;;;;;-0.40;92.32;99758.16;5082086;28;20479;-72
2022/01/10 01:08:42;;;;;;;39.15;20.67;;;;;;;-0.43;92.48;99765.34;5078832;28;20499;-72
2022/01/10 01:13:57;;;;;;;38.78;20.52;;;;;;;-0.44;92.05;99772.44;5076502;28;20045;-72
2022/01/10 01:16:41;;;;;;;38.58;21.55;;;;;;;-0.50;91.88;99758.72;5075122;28;20064;-73
2022/01/10 01:24:19;;;;;;;38.22;20.30;;;;;;;-0.52;91.68;99760.56;5081189;28;20449;-70
2022/01/10 01:26:48;;;;;;;37.47;20.75;;;;;;;-0.48;91.21;99765.59;5082061;28;20032;-71
2022/01/10 01:29:17;;;;;;;42.05;21.85;;;;;;;-0.48;91.49;99765.59;5079463;28;20021;-71
2022/01/10 01:31:44;;;;;;;40.40;20.25;;;;;;;-0.54;91.17;99765.06;5085441;28;20032;-72
2022/01/10 01:34:10;;;;;;;36.60;20.35;;;;;;;-0.47;91.40;99779.63;5087785;28;20031;-72
2022/01/10 01:36:37;;;;;;;39.80;21.88;;;;;;;-0.54;91.55;99767.72;5086878;28;20028;-70
2022/01/10 01:39:09;;;;;;;38.45;20.05;;;;;;;-0.57;91.60;99759.97;5083510;28;20082;-73
2022/01/10 01:41:40;;;;;;;37.17;19.90;;;;;;;-0.61;91.72;99751.34;5087334;28;20028;-71
2022/01/10 01:44:06;;;;;;;37.83;20.02;;;;;;;-0.64;91.60;99762.03;5086946;28;20103;-72
2022/01/10 01:46:34;;;;;;;35.80;20.77;;;;;;;-0.60;91.86;99762.75;5084111;28;20056;-74
2022/01/10 01:49:00;;;;;;;40.55;19.77;;;;;;;-0.64;91.84;99756.78;5083975;28;20032;-73
2022/01/10 01:51:26;;;;;;;39.83;21.10;;;;;;;-0.64;91.72;99769.13;5086062;28;20051;-73
2022/01/10 01:53:52;;;;;;;40.45;21.55;;;;;;;-0.66;91.83;99774.47;5085511;28;20057;-73
2022/01/10 01:56:19;;;;;;;40.45;22.35;;;;;;;-0.68;92.05;99770.22;5084499;28;20023;-72
2022/01/10 01:58:44;;;;;;;37.72;20.92;;;;;;;-0.63;91.92;99776.06;5085636;28;20027;-72
2022/01/10 02:01:11;;;;;;;37.67;21.60;;;;;;;-0.76;91.90;99748.66;5081846;28;20090;-73
2022/01/10 02:03:38;;;;;;;40.33;20.48;;;;;;;-0.70;91.73;99767.66;5082564;28;20111;-73
2022/01/10 02:06:07;;;;;;;43.65;22.08;;;;;;;-0.74;91.63;99766.09;5076169;28;20036;-73
2022/01/10 02:08:34;;;;;;;37.70;19.30;;;;;;;-0.75;91.21;99771.41;5089352;28;20032;-72
2022/01/10 02:11:01;;;;;;;37.30;20.95;;;;;;;-0.73;91.49;99778.34;5084145;28;20020;-72
2022/01/10 02:13:30;;;;;;;36.05;20.40;;;;;;;-0.76;91.38;99775.00;5086440;28;20170;-72
2022/01/10 02:16:01;;;;;;;37.25;19.90;;;;;;;-0.80;91.64;99776.91;5082764;28;20108;-73
2022/01/10 02:18:27;;;;;;;38.20;20.48;;;;;;;-0.83;91.95;99784.13;5084264;28;20024;-73
2022/01/10 02:20:54;;;;;;;38.17;19.73;;;;;;;-0.85;91.97;99780.72;5083935;28;20029;-73
2022/01/10 02:23:19;;;;;;;42.38;21.73;;;;;;;-0.86;92.29;99781.66;5081117;28;20027;-72
2022/01/10 02:25:46;;;;;;;40.30;21.13;;;;;;;-0.89;92.46;99784.44;5075133;28;20036;-72
2022/01/10 02:28:15;;;;;;;39.83;20.15;;;;;;;-0.90;92.17;99780.94;5084581;28;20027;-73
2022/01/10 02:30:41;;;;;;;39.28;21.33;;;;;;;-0.94;92.07;99774.13;5089993;28;20024;-73
2022/01/10 02:33:06;;;;;;;41.10;21.67;;;;;;;-0.91;91.70;99787.16;5084994;28;20020;-73
2022/01/10 02:38:55;;;;;;;37.67;18.88;;;;;;;-0.99;91.99;99788.47;5042358;28;20689;-72
2022/01/10 02:41:24;;;;;;;39.90;20.73;;;;;;;-1.01;92.26;99795.56;5081144;28;20107;-72
2022/01/10 02:43:51;;;;;;;36.85;19.45;;;;;;;-0.96;92.08;99804.09;5076916;28;20028;-73
2022/01/10 02:46:18;;;;;;;39.17;20.75;;;;;;;-1.02;92.22;99793.88;5085594;28;20082;-73
2022/01/10 02:48:44;;;;;;;41.70;20.42;;;;;;;-1.03;92.09;99793.00;5086623;28;20039;-73
2022/01/10 02:51:10;;;;;;;39.90;21.13;;;;;;;-1.12;92.23;99776.84;5086574;28;20040;-72
2022/01/10 02:53:36;;;;;;;42.28;22.20;;;;;;;-1.07;92.12;99799.34;5083018;28;20028;-72
2022/01/10 02:56:01;;;;;;;45.40;22.75;;;;;;;-1.15;92.72;99793.63;5082762;28;20512;-72
2022/01/10 02:58:27;;;;;;;42.60;22.60;;;;;;;-1.12;92.91;99808.41;5079979;28;20025;-73
2022/01/10 03:00:52;;;;;;;43.65;23.05;;;;;;;-1.13;92.93;99804.91;5082933;28;20423;-74
2022/01/10 03:03:18;;;;;;;42.40;22.95;;;;;;;-1.21;93.09;99793.06;5073172;28;20468;-73
2022/01/10 03:05:43;;;;;;;43.53;22.63;;;;;;;-1.15;92.95;99811.19;5084303;28;20024;-74
2022/01/10 03:08:09;;;;;;;43.58;22.58;;;;;;;-1.18;93.02;99812.19;5083431;28;20020;-74
2022/01/10 03:10:34;;;;;;;43.08;22.05;;;;;;;-1.24;93.15;99804.59;5087686;28;20028;-72
2022/01/10 03:13:00;;;;;;;48.30;25.92;;;;;;;-1.19;93.00;99814.91;5084274;28;20024;-74
2022/01/10 03:15:27;;;;;;;44.33;22.33;;;;;;;-1.19;93.10;99818.34;5082242;28;20458;-73
2022/01/10 03:17:52;;;;;;;48.17;24.50;;;;;;;-1.23;93.48;99813.34;5088542;28;20475;-73
2022/01/10 03:20:18;;;;;;;50.38;25.48;;;;;;;-1.32;93.80;99795.38;5085395;28;20024;-73
2022/01/10 03:22:44;;;;;;;47.10;23.42;;;;;;;-1.35;94.13;99792.88;5080287;28;20040;-73
2022/01/10 03:25:10;;;;;;;49.90;23.65;;;;;;;-1.28;94.22;99804.81;5078480;28;20029;-73
2022/01/10 03:27:35;;;;;;;53.15;24.15;;;;;;;-1.30;93.87;99791.72;5074819;28;20056;-72
2022/01/10 03:30:07;;;;;;;52.50;24.75;;;;;;;-1.26;94.06;99803.81;5080222;28;20464;-74
2022/01/10 03:32:32;;;;;;;53.58;26.00;;;;;;;-1.28;94.64;99821.44;5078511;28;20031;-73
2022/01/10 03:35:00;;;;;;;52.55;25.85;;;;;;;-1.26;95.12;99826.63;5084359;28;20033;-74
2022/01/10 03:37:26;;;;;;;52.33;24.63;;;;;;;-1.34;95.32;99823.50;5090655;28;20033;-72
2022/01/10 03:39:52;;;;;;;49.42;24.13;;;;;;;-1.36;95.80;99814.84;5088191;28;20039;-72
2022/01/10 03:42:17;;;;;;;51.40;25.95;;;;;;;-1.32;95.68;99829.56;5080359;28;20483;-73
2022/01/10 03:44:43;;;;;;;53.13;25.38;;;;;;;-1.33;95.60;99838.34;5085743;28;20032;-74
2022/01/10 03:47:10;;;;;;;48.55;25.58;;;;;;;-1.40;95.70;99827.28;5089712;28;20028;-73
2022/01/10 03:49:36;;;;;;;51.00;23.48;;;;;;;-1.44;96.51;99831.00;5083840;28;20475;-71
2022/01/10 03:52:02;;;;;;;53.20;24.95;;;;;;;-1.45;96.38;99839.78;5082932;28;20048;-73
2022/01/10 03:54:28;;;;;;;50.72;24.20;;;;;;;-1.43;96.88;99847.59;5083920;28;20024;-72
2022/01/10 03:56:53;;;;;;;48.13;23.95;;;;;;;-1.43;96.92;99847.59;5089465;28;20034;-73
2022/01/10 03:59:19;;;;;;;48.42;24.58;;;;;;;-1.42;97.02;99849.31;5093230;28;20028;-71
2022/01/10 04:01:45;;;;;;;52.03;25.52;;;;;;;-1.48;97.20;99839.09;5076734;28;20036;-72
2022/01/10 04:04:10;;;;;;;50.55;23.77;;;;;;;-1.45;97.19;99849.47;5082217;28;20020;-73
2022/01/10 04:06:36;;;;;;;43.90;23.02;;;;;;;-1.46;97.25;99839.84;5085699;28;20114;-73
2022/01/10 04:09:03;;;;;;;51.05;24.45;;;;;;;-1.42;97.03;99850.16;5082956;28;20104;-74
2022/01/10 04:11:29;;;;;;;52.22;24.23;;;;;;;-1.47;97.31;99833.75;5080089;28;20036;-72
2022/01/10 04:13:54;;;;;;;49.10;23.90;;;;;;;-1.46;97.04;99842.47;5080324;28;20031;-73
2022/01/10 04:16:19;;;;;;;48.00;23.77;;;;;;;-1.46;96.98;99845.97;5084698;28;20035;-73
2022/01/10 04:18:45;;;;;;;46.17;23.63;;;;;;;-1.43;96.96;99853.72;5066271;28;20052;-73
2022/01/10 04:21:10;;;;;;;46.85;23.30;;;;;;;-1.43;97.01;99858.13;5083281;28;20093;-72
2022/01/10 04:23:36;;;;;;;55.95;24.42;;;;;;;-1.43;97.20;99871.25;5078200;28;20481;-72
2022/01/10 04:26:02;;;;;;;52.42;25.02;;;;;;;-1.47;97.30;99867.09;5077721;28;20046;-73
2022/01/10 04:28:29;;;;;;;52.45;23.60;;;;;;;-1.48;97.37;99868.84;5088472;28;20035;-72
2022/01/10 04:30:54;;;;;;;52.55;25.23;;;;;;;-1.53;97.33;99867.34;5079033;28;20020;-72
2022/01/10 04:33:21;;;;;;;55.05;25.23;;;;;;;-1.54;97.41;99877.03;5075555;28;20035;-72
2022/01/10 04:35:48;;;;;;;51.95;25.27;;;;;;;-1.54;97.15;99878.81;5078246;28;20429;-71
2022/01/10 04:38:14;;;;;;;56.85;25.25;;;;;;;-1.74;97.71;99848.16;5084959;28;20047;-71
2022/01/10 04:40:40;;;;;;;49.90;23.77;;;;;;;-1.66;98.18;99871.47;5078040;28;20080;-72
2022/01/10 04:43:09;;;;;;;50.80;23.58;;;;;;;-1.68;98.38;99874.16;5071648;28;20028;-73
2022/01/10 04:45:34;;;;;;;49.25;23.48;;;;;;;-1.69;98.49;99879.50;5083705;28;20105;-71
2022/01/10 04:48:04;;;;;;;49.33;23.20;;;;;;;-1.72;98.87;99879.63;5070659;28;20020;-71
2022/01/10 04:53:09;;;;;;;51.35;23.75;;;;;;;-1.74;99.34;99886.75;5076254;28;20387;-71
2022/01/10 04:55:35;;;;;;;52.03;23.60;;;;;;;-1.81;99.40;99874.81;5083828;28;20023;-71
2022/01/10 04:58:00;;;;;;;56.28;23.63;;;;;;;-1.76;99.47;99875.44;5079297;28;20023;-72
2022/01/10 05:00:26;;;;;;;66.70;24.30;;;;;;;-1.82;99.39;99871.31;5078275;28;20111;-72
2022/01/10 05:02:52;;;;;;;57.60;24.20;;;;;;;-1.80;99.71;99881.75;5081708;28;20488;-72
2022/01/10 05:05:17;;;;;;;55.85;25.33;;;;;;;-1.78;99.99;99891.28;5075454;28;20028;-72
2022/01/10 05:07:43;;;;;;;59.50;25.77;;;;;;;-1.82;100.00;99878.34;5079875;28;20037;-72
2022/01/10 05:10:09;;;;;;;65.18;26.98;;;;;;;-1.83;99.83;99874.03;5080850;28;20028;-71
2022/01/10 05:12:34;;;;;;;61.70;25.83;;;;;;;-1.89;100.00;99866.41;5073036;28;20392;-72
2022/01/10 05:15:03;;;;;;;59.50;25.27;;;;;;;-1.85;100.00;99887.22;5073499;28;20035;-72
2022/01/10 05:17:29;;;;;;;65.30;27.30;;;;;;;-1.87;100.00;99878.53;5075570;28;20056;-71
2022/01/10 05:19:54;;;;;;;69.72;28.48;;;;;;;-1.87;100.00;99872.47;5075290;28;20056;-72
2022/01/10 05:22:20;;;;;;;68.20;26.70;;;;;;;-1.87;100.00;99885.59;5065336;28;20040;-72
2022/01/10 05:24:45;;;;;;;71.20;29.58;;;;;;;-1.86;100.00;99884.66;5077033;28;20035;-70
2022/01/10 05:27:10;;;;;;;61.95;27.60;;;;;;;-1.84;100.00;99895.97;5084645;28;20027;-73
2022/01/10 05:29:36;;;;;;;65.95;27.83;;;;;;;-1.88;100.00;99891.75;5079424;28;20290;-72
2022/01/10 05:32:01;;;;;;;67.10;27.80;;;;;;;-1.85;100.00;99903.00;5077934;28;20028;-72
2022/01/10 05:34:27;;;;;;;64.93;26.92;;;;;;;-1.89;100.00;99895.31;5076995;28;20056;-72
2022/01/10 05:36:53;;;;;;;60.35;25.35;;;;;;;-1.84;100.00;99912.56;5079817;28;20024;-71
2022/01/10 05:39:18;;;;;;;62.35;26.90;;;;;;;-1.83;100.00;99919.56;5078601;28;20044;-72
2022/01/10 05:41:44;;;;;;;60.88;25.10;;;;;;;-1.86;100.00;99929.34;5081328;28;20031;-72
2022/01/10 05:44:10;;;;;;;72.85;24.67;;;;;;;-1.98;100.00;99916.72;5079909;28;20150;-71
2022/01/10 05:46:41;;;;;;;61.75;25.17;;;;;;;-1.94;99.98;99944.59;5059241;28;20551;-72
2022/01/10 05:49:08;;;;;;;59.03;25.75;;;;;;;-2.00;100.00;99944.84;5081819;28;20055;-72
2022/01/10 05:51:34;;;;;;;67.13;28.08;;;;;;;-2.06;100.00;99945.09;5074884;28;20071;-72
2022/01/10 05:54:01;;;;;;;64.30;27.00;;;;;;;-1.97;100.00;99971.81;5077024;28;20094;-73
2022/01/10 05:56:26;;;;;;;67.90;28.38;;;;;;;-2.04;100.00;99969.56;5082183;28;20032;-72
2022/01/10 05:58:52;;;;;;;66.75;28.23;;;;;;;-2.04;100.00;99969.56;5071339;28;20380;-73
2022/01/10 06:01:18;;;;;;;69.60;29.27;;;;;;;-2.02;100.00;99976.44;5076804;28;20306;-72
2022/01/10 06:03:43;;;;;;;72.35;29.63;;;;;;;-1.98;100.00;99971.88;5076879;28;20025;-72
2022/01/10 06:06:09;;;;;;;70.18;30.55;;;;;;;-1.99;100.00;99962.31;5074997;28;20077;-73
2022/01/10 06:08:34;;;;;;;71.10;27.90;;;;;;;-1.97;100.00;99961.31;5081719;28;20032;-73
2022/01/10 06:11:00;;;;;;;68.90;27.40;;;;;;;-1.98;100.00;99954.38;5082393;28;20131;-72
2022/01/10 06:13:25;;;;;;;65.13;27.85;;;;;;;-1.89;100.00;99942.59;5079564;28;20024;-72
2022/01/10 06:15:51;;;;;;;72.60;29.73;;;;;;;-1.96;100.00;99926.25;5065782;28;20032;-73
2022/01/10 06:18:19;;;;;;;73.20;28.20;;;;;;;-1.88;100.00;99944.31;5081451;28;20023;-72
2022/01/10 06:20:45;;;;;;;75.60;28.73;;;;;;;-1.82;100.00;99954.53;5071291;28;20027;-72
2022/01/10 06:23:11;;;;;;;81.15;31.70;;;;;;;-1.90;100.00;99940.91;5071522;28;20024;-72
2022/01/10 06:25:40;;;;;;;82.25;32.95;;;;;;;-1.91;100.00;99944.47;5081708;28;20111;-73
2022/01/10 06:28:07;;;;;;;75.93;30.92;;;;;;;-1.87;100.00;99956.53;5085633;28;20051;-73
2022/01/10 06:30:33;;;;;;;81.88;33.55;;;;;;;-1.84;100.00;99961.66;5081554;28;20048;-72
2022/01/10 06:32:58;;;;;;;87.35;34.25;;;;;;;-1.82;100.00;99965.06;5077074;28;20091;-72
2022/01/10 06:35:24;;;;;;;80.63;32.83;;;;;;;-1.86;100.00;99961.72;5076005;28;20032;-71
2022/01/10 06:37:50;;;;;;;85.50;36.33;;;;;;;-1.86;100.00;99977.50;5080513;28;20033;-72
2022/01/10 06:40:16;;;;;;;79.28;34.00;;;;;;;-1.86;99.70;99979.25;5083867;28;20050;-72
2022/01/10 06:42:42;;;;;;;85.22;35.35;;;;;;;-1.88;99.66;99986.34;5083813;28;20024;-72
2022/01/10 06:45:09;;;;;;;90.25;34.08;;;;;;;-1.88;99.72;99987.22;5081858;28;20399;-72
2022/01/10 06:47:35;;;;;;;88.47;34.33;;;;;;;-1.89;99.56;99989.91;5069045;28;20044;-72
2022/01/10 06:50:00;;;;;;;98.85;34.78;;;;;;;-1.94;99.24;99991.88;5079243;28;20028;-72
2022/01/10 06:52:26;;;;;;;83.70;34.90;;;;;;;-1.87;99.46;100015.19;5083507;28;20032;-72
2022/01/10 06:54:51;;;;;;;82.63;33.42;;;;;;;-1.90;99.41;100014.47;5080344;28;20601;-72
2022/01/10 06:57:18;;;;;;;77.45;31.15;;;;;;;-1.92;99.13;100004.03;5077644;28;20063;-72
2022/01/10 06:59:43;;;;;;;77.72;31.48;;;;;;;-1.93;98.82;100015.47;5076960;28;20024;-71
2022/01/10 07:02:09;;;;;;;72.30;28.27;;;;;;;-2.02;98.50;100004.47;5081568;28;20028;-73
2022/01/10 07:04:35;;;;;;;76.43;30.70;;;;;;;-1.97;98.17;100015.66;5083384;28;20441;-73
2022/01/10 07:07:01;;;;;;;72.13;27.40;;;;;;;-1.95;98.00;100017.28;5075798;28;20043;-72
2022/01/10 07:09:26;;;;;;;76.15;31.17;;;;;;;-1.94;97.48;100018.16;5075047;28;20032;-71
2022/01/10 07:11:52;;;;;;;76.78;31.25;;;;;;;-1.99;97.16;100012.22;5081228;28;20081;-72
2022/01/10 07:14:17;;;;;;;72.15;29.83;;;;;;;-2.07;97.15;100007.28;5086295;28;20027;-72
2022/01/10 07:16:43;;;;;;;73.50;30.52;;;;;;;-1.95;96.73;100013.78;5081067;28;20046;-72
2022/01/10 07:19:09;;;;;;;69.13;29.63;;;;;;;-1.99;96.52;100015.72;5086113;28;20034;-72
2022/01/10 07:21:39;;;;;;;64.72;27.40;;;;;;;-1.96;96.82;100030.50;5084300;28;20028;-72
2022/01/10 07:24:06;;;;;;;61.67;24.52;;;;;;;-2.03;96.91;100013.28;5082232;28;20020;-72
2022/01/10 07:26:32;;;;;;;65.22;26.17;;;;;;;-2.03;96.90;100019.41;5079405;28;20085;-72
2022/01/10 07:28:58;;;;;;;74.13;29.60;;;;;;;-1.95;96.97;100032.19;5073984;28;20418;-71
2022/01/10 07:31:27;;;;;;;68.63;27.33;;;;;;;-2.02;96.97;100036.00;5076312;28;20052;-72
2022/01/10 07:33:52;;;;;;;78.93;30.35;;;;;;;-2.04;97.07;100033.44;5080440;28;20020;-72
2022/01/10 07:36:18;;;;;;;73.93;30.75;;;;;;;-2.05;97.40;100025.63;5082619;28;20486;-72
2022/01/10 07:38:43;;;;;;;75.00;30.85;;;;;;;-2.03;97.44;100035.16;5077807;28;20032;-72
2022/01/10 07:41:09;;;;;;;74.93;31.02;;;;;;;-2.11;97.10;100018.84;5079181;28;20039;-72
2022/01/10 07:43:35;;;;;;;72.18;30.02;;;;;;;-1.99;96.93;100025.38;5075061;28;20030;-71
2022/01/10 07:46:04;;;;;;;70.35;27.40;;;;;;;-1.99;96.88;100041.13;5080831;28;20495;-73
2022/01/10 07:48:33;;;;;;;77.00;31.02;;;;;;;-2.05;95.99;100028.25;5062570;28;20116;-72
2022/01/10 07:50:58;;;;;;;68.18;28.70;;;;;;;-2.01;96.14;100027.19;5081741;28;20157;-71
2022/01/10 07:53:23;;;;;;;70.70;30.77;;;;;;;-2.07;95.94;100024.84;5064317;28;20657;-73
2022/01/10 07:55:51;;;;;;;75.30;31.83;;;;;;;-1.99;96.03;100036.72;5083893;28;20484;-71
2022/01/10 07:58:17;;;;;;;66.75;28.83;;;;;;;-1.98;95.44;100027.94;5074332;28;20041;-72
2022/01/10 08:00:44;;;;;;;69.28;28.17;;;;;;;-1.99;94.77;100031.47;5077266;28;20388;-72
2022/01/10 08:03:09;;;;;;;76.63;32.40;;;;;;;-1.94;93.52;100033.91;5082926;28;20015;-72
2022/01/10 08:05:35;;;;;;;71.63;29.77;;;;;;;-2.03;92.76;100029.91;5078324;28;20028;-73
2022/01/10 08:08:00;;;;;;;71.05;29.33;;;;;;;-2.02;92.86;100031.59;5086854;28;20061;-72
2022/01/10 08:10:26;;;;;;;80.18;33.22;;;;;;;-2.03;93.53;100039.56;5080376;28;20024;-72
2022/01/10 08:12:51;;;;;;;78.85;33.45;;;;;;;-2.02;94.13;100047.38;5078951;28;20082;-72
2022/01/10 08:15:17;;;;;;;81.03;34.13;;;;;;;-1.99;93.84;100046.38;5076881;28;20032;-72
2022/01/10 08:17:43;;;;;;;75.55;31.02;;;;;;;-2.03;93.81;100039.56;5131364;22;20074;-67
2022/01/10 08:20:09;;;;;;;74.32;31.10;;;;;;;-1.92;93.67;100042.56;5105221;28;20031;-68
2022/01/10 08:22:35;;;;;;;66.15;31.27;;;;;;;-1.86;93.50;100039.69;5106455;28;20027;-68
2022/01/10 08:25:01;;;;;;;66.57;31.15;;;;;;;-1.78;93.18;100050.75;5108914;28;20072;-67
2022/01/10 08:27:26;;;;;;;62.72;29.85;;;;;;;-1.73;92.77;100054.03;5109294;28;20722;-67
2022/01/10 08:29:52;;;;;;;62.15;28.85;;;;;;;-1.66;92.39;100045.81;5090268;28;20028;-68
2022/01/10 08:32:18;;;;;;;68.50;30.70;;;;;;;-1.62;91.43;100039.50;5090982;28;20035;-67
2022/01/10 08:34:44;;;;;;;65.68;30.60;;;;;;;-1.58;91.17;100033.19;5102059;28;20030;-68
2022/01/10 08:37:10;;;;;;;69.50;32.92;;;;;;;-1.47;91.10;100046.75;5096259;28;20081;-68
2022/01/10 08:39:35;;;;;;;64.50;30.52;;;;;;;-1.41;90.95;100049.09;5094238;28;20023;-68
2022/01/10 08:42:01;;;;;;;62.72;30.58;;;;;;;-1.31;91.13;100044.28;5095983;28;20031;-68
2022/01/10 08:44:27;;;;;;;67.53;32.17;;;;;;;-1.29;91.34;100039.81;5093645;28;20034;-69
2022/01/10 08:46:52;;;;;;;64.25;30.92;;;;;;;-1.21;90.00;100035.06;5098967;28;20115;-68
2022/01/10 08:49:18;;;;;;;65.25;30.70;;;;;;;-1.12;89.83;100045.19;5101260;28;20035;-68
2022/01/10 08:51:45;;;;;;;62.72;31.17;;;;;;;-1.05;89.59;100049.22;5098750;28;20024;-68
2022/01/10 08:54:11;;;;;;;59.60;29.63;;;;;;;-1.04;89.03;100048.31;5098590;28;20062;-67
2022/01/10 08:56:36;;;;;;;63.78;30.70;;;;;;;-1.00;88.77;100050.72;5101845;28;20027;-68
2022/01/10 08:59:03;;;;;;;61.13;30.40;;;;;;;-0.98;88.82;100050.66;5103342;28;20498;-68
2022/01/10 09:01:30;;;;;;;63.38;31.05;;;;;;;-0.97;88.71;100047.13;5100910;28;20041;-68
2022/01/10 09:03:55;;;;;;;66.15;30.98;;;;;;;-0.89;88.24;100058.16;5101908;28;20487;-66
2022/01/10 09:06:21;;;;;;;61.58;30.05;;;;;;;-0.87;87.95;100067.66;5091835;28;20032;-68
2022/01/10 09:08:48;;;;;;;73.15;33.17;;;;;;;-0.87;88.06;100072.09;5098575;28;20591;-68
2022/01/10 09:11:14;;;;;;;60.28;32.33;;;;;;;-0.78;88.40;100080.41;5091990;28;20049;-68
2022/01/10 09:13:40;;;;;;;68.03;34.65;;;;;;;-0.77;87.52;100074.22;5092090;28;20026;-68
2022/01/10 09:16:07;;;;;;;68.93;33.78;;;;;;;-0.73;88.10;100077.56;5097515;28;20024;-68
2022/01/10 09:18:33;;;;;;;70.57;35.50;;;;;;;-0.69;88.53;100084.41;5102720;28;20024;-69
2022/01/10 09:20:59;;;;;;;69.43;35.50;;;;;;;-0.71;88.07;100075.75;5096015;28;20027;-68
2022/01/10 09:23:25;;;;;;;74.28;35.63;;;;;;;-0.61;87.81;100091.03;5094331;28;20102;-68
2022/01/10 09:25:51;;;;;;;65.57;34.28;;;;;;;-0.54;86.98;100094.25;5101111;28;20023;-68
2022/01/10 09:28:18;;;;;;;69.07;35.63;;;;;;;-0.54;86.85;100084.53;5095729;28;20041;-69
2022/01/10 09:30:44;;;;;;;65.43;33.00;;;;;;;-0.48;87.03;100084.25;5090382;28;20055;-67
2022/01/10 09:33:09;;;;;;;75.35;36.63;;;;;;;-0.43;86.86;100084.91;5098129;28;20501;-68
2022/01/10 09:35:35;;;;;;;76.97;36.05;;;;;;;-0.45;86.62;100072.75;5099922;28;20797;-67
2022/01/10 09:38:01;;;;;;;74.65;34.17;;;;;;;-0.31;85.69;100083.47;5101032;28;20032;-68
2022/01/10 09:40:27;;;;;;;71.30;34.70;;;;;;;-0.27;85.03;100082.41;5087371;28;20074;-66
2022/01/10 09:42:52;;;;;;;64.55;32.08;;;;;;;-0.29;84.31;100087.75;5090117;28;20157;-68
2022/01/10 09:45:18;;;;;;;63.30;31.50;;;;;;;-0.25;84.01;100080.56;5103254;28;20027;-68
2022/01/10 09:47:44;;;;;;;60.05;30.85;;;;;;;-0.22;83.34;100083.03;5103413;28;20487;-71
2022/01/10 09:50:10;;;;;;;61.85;31.80;;;;;;;-0.25;81.81;100072.66;5098374;28;20479;-71
2022/01/10 09:52:38;;;;;;;56.50;28.55;;;;;;;-0.15;81.45;100085.31;5096411;28;20028;-71
2022/01/10 09:55:05;;;;;;;61.42;30.67;;;;;;;-0.07;81.27;100092.81;5102367;28;20036;-71
2022/01/10 09:57:30;;;;;;;61.03;31.60;;;;;;;-0.08;81.40;100078.81;5100790;28;20118;-72
2022/01/10 09:59:56;;;;;;;68.93;33.85;;;;;;;-0.05;81.59;100083.94;5105136;28;20128;-71
2022/01/10 10:02:30;;;;;;;60.92;30.15;;;;;;;0.00;81.44;100084.56;5107568;28;20062;-71
2022/01/10 10:04:55;;;;;;;64.40;31.80;;;;;;;0.02;81.03;100081.84;5108034;28;20479;-71
2022/01/10 10:07:24;;;;;;;64.10;30.10;;;;;;;0.06;81.13;100083.41;5099585;28;20092;-72
2022/01/10 10:09:49;;;;;;;64.70;33.30;;;;;;;0.04;81.13;100078.19;5097485;28;20069;-71
2022/01/10 10:12:15;;;;;;;61.28;31.90;;;;;;;0.07;81.41;100081.63;5101416;28;20067;-72
2022/01/10 10:14:41;;;;;;;64.10;32.05;;;;;;;0.09;81.35;100085.88;5101756;28;20031;-71
2022/01/10 10:17:13;;;;;;;67.20;33.03;;;;;;;0.13;81.48;100087.47;5102692;28;20134;-71
2022/01/10 10:19:38;;;;;;;68.88;34.13;;;;;;;0.14;81.70;100083.88;5102562;28;20031;-71
2022/01/10 10:22:04;;;;;;;68.30;33.42;;;;;;;0.21;81.71;100090.56;5092970;28;20024;-72
2022/01/10 10:24:29;;;;;;;64.10;33.22;;;;;;;0.23;81.69;100094.00;5101170;28;20495;-72
2022/01/10 10:26:57;;;;;;;64.55;32.55;;;;;;;0.26;81.38;100091.19;5107773;27;20034;-71
2022/01/10 10:29:22;;;;;;;68.40;33.75;;;;;;;0.29;81.07;100092.81;5101061;28;20032;-71
2022/01/10 10:31:53;;;;;;;63.83;33.17;;;;;;;0.34;80.77;100090.78;5101609;28;20077;-72
2022/01/10 10:34:23;;;;;;;77.53;36.72;;;;;;;0.38;80.48;100092.38;5103288;28;20027;-71
2022/01/10 10:37:09;;;;;;;77.82;37.45;;;;;;;0.41;80.29;100100.09;5105807;28;20575;-72
2022/01/10 10:39:37;;;;;;;67.05;34.70;;;;;;;0.45;80.95;100097.22;5103148;28;20530;-72
2022/01/10 10:42:05;;;;;;;70.70;34.80;;;;;;;0.52;80.71;100101.31;5105468;28;20043;-72
2022/01/10 10:44:31;;;;;;;68.80;33.50;;;;;;;0.52;80.25;100092.53;5101835;28;20028;-73
2022/01/10 10:46:58;;;;;;;67.97;33.05;;;;;;;0.57;80.29;100107.19;5104115;28;20368;-72
2022/01/10 10:49:34;;;;;;;71.65;35.15;;;;;;;0.62;80.13;100101.69;5108006;28;20077;-72
2022/01/10 10:52:01;;;;;;;65.28;33.63;;;;;;;0.58;79.69;100085.13;5104497;28;20486;-72
2022/01/10 10:54:31;;;;;;;69.03;31.92;;;;;;;0.68;79.70;100096.09;5100094;28;20081;-72
2022/01/10 10:57:02;;;;;;;69.13;34.58;;;;;;;0.75;79.84;100094.84;5099979;28;20019;-72
2022/01/10 10:59:35;;;;;;;69.15;32.83;;;;;;;0.75;80.00;100089.56;5100347;28;20024;-72
2022/01/10 11:02:02;;;;;;;61.88;31.05;;;;;;;0.75;79.60;100074.59;5101713;28;20023;-72
2022/01/10 11:04:29;;;;;;;62.67;32.72;;;;;;;0.83;79.64;100082.94;5102260;28;20032;-71
2022/01/10 11:06:56;;;;;;;60.17;30.20;;;;;;;0.95;79.32;100086.72;5102803;28;20758;-73
2022/01/10 11:09:22;;;;;;;59.17;29.90;;;;;;;0.99;79.77;100080.34;5103014;28;20606;-72
2022/01/10 11:11:48;;;;;;;59.13;30.77;;;;;;;1.04;80.06;100092.41;5103963;28;20142;-72
2022/01/10 11:14:17;;;;;;;58.55;29.65;;;;;;;1.03;79.99;100079.28;5104149;28;20027;-72
2022/01/10 11:16:46;;;;;;;55.05;28.67;;;;;;;1.18;79.88;100099.56;5103830;28;20040;-71
2022/01/10 11:19:18;;;;;;;58.45;30.05;;;;;;;1.25;78.97;100103.59;5097834;28;20040;-73
2022/01/10 11:22:07;;;;;;;52.88;28.10;;;;;;;1.32;79.25;100103.19;5101933;28;20023;-73
2022/01/10 11:24:46;;;;;;;60.03;30.20;;;;;;;1.37;79.37;100098.50;5089974;28;20048;-73